sensor_id;sensor_type;location;lat;lon;timestamp;pressure;altitude;pressure_sealevel;temperature;humidity
61357;BME280;47227;46.752;23.576;2023-06-14T00:41:22;96098.14;;;13.39;90.80
61357;BME280;47227;46.752;23.576;2023-06-14T00:56:33;96084.75;;;13.39;91.41
61357;BME280;47227;46.752;23.576;2023-06-14T01:22:29;96085.35;;;13.52;91.77
61357;BME280;47227;46.752;23.576;2023-06-14T01:36:25;96087.99;;;13.28;90.91
61357;BME280;47227;46.752;23.576;2023-06-14T01:51:12;96093.74;;;12.98;90.18
61357;BME280;47227;46.752;23.576;2023-06-14T01:58:44;96100.04;;;12.72;89.65
61357;BME280;47227;46.752;23.576;2023-06-14T02:01:11;96100.25;;;12.69;89.64
61357;BME280;47227;46.752;23.576;2023-06-14T02:03:40;96105.14;;;12.68;89.86
61357;BME280;47227;46.752;23.576;2023-06-14T02:06:08;96101.89;;;12.68;89.80
61357;BME280;47227;46.752;23.576;2023-06-14T02:08:39;96102.52;;;12.69;89.98
61357;BME280;47227;46.752;23.576;2023-06-14T02:11:08;96098.05;;;12.70;89.86
61357;BME280;47227;46.752;23.576;2023-06-14T02:13:36;96097.20;;;12.70;89.97
61357;BME280;47227;46.752;23.576;2023-06-14T02:16:04;96095.58;;;12.73;90.10
61357;BME280;47227;46.752;23.576;2023-06-14T02:18:33;96096.41;;;12.77;90.27
61357;BME280;47227;46.752;23.576;2023-06-14T02:21:01;96099.09;;;12.79;90.08
61357;BME280;47227;46.752;23.576;2023-06-14T02:23:29;96099.77;;;12.79;89.73
61357;BME280;47227;46.752;23.576;2023-06-14T02:26:00;96099.72;;;12.79;89.58
61357;BME280;47227;46.752;23.576;2023-06-14T02:28:28;96100.09;;;12.80;89.69
61357;BME280;47227;46.752;23.576;2023-06-14T02:30:56;96104.04;;;12.84;89.58
61357;BME280;47227;46.752;23.576;2023-06-14T02:33:24;96103.08;;;12.86;89.36
61357;BME280;47227;46.752;23.576;2023-06-14T02:35:53;96097.55;;;12.87;89.14
61357;BME280;47227;46.752;23.576;2023-06-14T02:38:20;96099.02;;;12.86;88.86
61357;BME280;47227;46.752;23.576;2023-06-14T02:40:48;96102.10;;;12.81;88.81
61357;BME280;47227;46.752;23.576;2023-06-14T02:43:16;96103.68;;;12.72;88.48
61357;BME280;47227;46.752;23.576;2023-06-14T02:45:45;96108.99;;;12.65;88.36
61357;BME280;47227;46.752;23.576;2023-06-14T02:48:14;96107.95;;;12.56;87.99
61357;BME280;47227;46.752;23.576;2023-06-14T02:50:42;96106.15;;;12.48;87.80
61357;BME280;47227;46.752;23.576;2023-06-14T02:54:10;96110.77;;;12.39;87.62
61357;BME280;47227;46.752;23.576;2023-06-14T02:56:39;96114.62;;;12.33;87.53
61357;BME280;47227;46.752;23.576;2023-06-14T02:59:07;96113.94;;;12.28;87.57
61357;BME280;47227;46.752;23.576;2023-06-14T03:01:36;96119.08;;;12.26;87.53
61357;BME280;47227;46.752;23.576;2023-06-14T03:04:10;96122.71;;;12.25;87.70
61357;BME280;47227;46.752;23.576;2023-06-14T03:06:40;96121.92;;;12.23;87.62
61357;BME280;47227;46.752;23.576;2023-06-14T03:09:08;96122.55;;;12.23;87.58
61357;BME280;47227;46.752;23.576;2023-06-14T03:11:38;96119.77;;;12.24;87.78
61357;BME280;47227;46.752;23.576;2023-06-14T03:14:06;96119.23;;;12.27;87.88
61357;BME280;47227;46.752;23.576;2023-06-14T03:16:36;96118.66;;;12.31;87.85
61357;BME280;47227;46.752;23.576;2023-06-14T03:19:05;96114.09;;;12.34;87.70
61357;BME280;47227;46.752;23.576;2023-06-14T03:21:33;96114.36;;;12.38;87.74
61357;BME280;47227;46.752;23.576;2023-06-14T03:24:03;96117.63;;;12.42;87.61
61357;BME280;47227;46.752;23.576;2023-06-14T03:26:32;96116.67;;;12.47;87.57
61357;BME280;47227;46.752;23.576;2023-06-14T03:29:01;96117.90;;;12.49;87.31
61357;BME280;47227;46.752;23.576;2023-06-14T03:31:30;96117.84;;;12.52;87.27
61357;BME280;47227;46.752;23.576;2023-06-14T03:34:01;96118.27;;;12.54;86.98
61357;BME280;47227;46.752;23.576;2023-06-14T03:36:30;96114.11;;;12.54;86.71
61357;BME280;47227;46.752;23.576;2023-06-14T03:38:58;96114.84;;;12.51;86.45
61357;BME280;47227;46.752;23.576;2023-06-14T03:41:26;96115.09;;;12.48;86.20
61357;BME280;47227;46.752;23.576;2023-06-14T03:43:55;96115.15;;;12.44;86.19
61357;BME280;47227;46.752;23.576;2023-06-14T03:46:23;96114.73;;;12.40;85.98
61357;BME280;47227;46.752;23.576;2023-06-14T03:48:51;96117.09;;;12.33;85.97
61357;BME280;47227;46.752;23.576;2023-06-14T03:51:18;96116.77;;;12.27;85.78
61357;BME280;47227;46.752;23.576;2023-06-14T03:53:46;96115.92;;;12.24;85.80
61357;BME280;47227;46.752;23.576;2023-06-14T03:56:34;96123.55;;;12.21;85.95
61357;BME280;47227;46.752;23.576;2023-06-14T03:59:06;96121.96;;;12.19;85.95
61357;BME280;47227;46.752;23.576;2023-06-14T04:01:34;96121.33;;;12.18;85.85
61357;BME280;47227;46.752;23.576;2023-06-14T04:04:02;96120.48;;;12.16;86.00
61357;BME280;47227;46.752;23.576;2023-06-14T04:06:30;96120.38;;;12.13;86.08
61357;BME280;47227;46.752;23.576;2023-06-14T04:09:01;96123.63;;;12.09;86.03
61357;BME280;47227;46.752;23.576;2023-06-14T04:11:30;96125.25;;;12.05;86.10
61357;BME280;47227;46.752;23.576;2023-06-14T04:13:59;96125.66;;;12.02;86.11
61357;BME280;47227;46.752;23.576;2023-06-14T04:16:27;96129.66;;;12.03;86.10
61357;BME280;47227;46.752;23.576;2023-06-14T04:18:56;96132.81;;;12.03;85.93
61357;BME280;47227;46.752;23.576;2023-06-14T04:21:25;96134.65;;;12.02;85.61
61357;BME280;47227;46.752;23.576;2023-06-14T04:23:57;96134.60;;;12.00;85.66
61357;BME280;47227;46.752;23.576;2023-06-14T04:26:28;96137.96;;;11.98;85.44
61357;BME280;47227;46.752;23.576;2023-06-14T04:28:59;96135.41;;;11.95;85.41
61357;BME280;47227;46.752;23.576;2023-06-14T04:31:32;96136.84;;;11.94;85.42
61357;BME280;47227;46.752;23.576;2023-06-14T04:34:03;96138.79;;;11.95;85.52
61357;BME280;47227;46.752;23.576;2023-06-14T04:36:34;96143.10;;;11.98;85.58
61357;BME280;47227;46.752;23.576;2023-06-14T04:39:05;96147.16;;;12.03;85.49
61357;BME280;47227;46.752;23.576;2023-06-14T04:41:33;96148.13;;;12.09;85.62
61357;BME280;47227;46.752;23.576;2023-06-14T04:44:03;96148.77;;;12.17;85.22
61357;BME280;47227;46.752;23.576;2023-06-14T04:46:37;96145.73;;;12.25;84.85
61357;BME280;47227;46.752;23.576;2023-06-14T04:49:17;96149.71;;;12.35;84.83
61357;BME280;47227;46.752;23.576;2023-06-14T04:51:45;96151.30;;;12.45;84.96
61357;BME280;47227;46.752;23.576;2023-06-14T04:54:15;96153.52;;;12.56;84.85
61357;BME280;47227;46.752;23.576;2023-06-14T04:56:43;96155.14;;;12.65;84.55
61357;BME280;47227;46.752;23.576;2023-06-14T04:59:12;96154.31;;;12.73;84.42
61357;BME280;47227;46.752;23.576;2023-06-14T05:01:42;96159.36;;;12.80;84.08
61357;BME280;47227;46.752;23.576;2023-06-14T05:04:16;96160.19;;;12.98;85.10
61357;BME280;47227;46.752;23.576;2023-06-14T05:06:44;96163.54;;;13.27;85.18
61357;BME280;47227;46.752;23.576;2023-06-14T05:09:13;96167.02;;;13.57;85.07
61357;BME280;47227;46.752;23.576;2023-06-14T05:11:42;96172.31;;;13.78;83.82
61357;BME280;47227;46.752;23.576;2023-06-14T05:14:12;96169.13;;;13.94;83.14
61357;BME280;47227;46.752;23.576;2023-06-14T05:16:40;96167.73;;;14.00;82.50
61357;BME280;47227;46.752;23.576;2023-06-14T05:19:08;96170.17;;;14.08;82.43
61357;BME280;47227;46.752;23.576;2023-06-14T05:21:37;96172.54;;;14.21;81.42
61357;BME280;47227;46.752;23.576;2023-06-14T05:24:10;96173.10;;;14.23;80.91
61357;BME280;47227;46.752;23.576;2023-06-14T05:26:39;96173.03;;;14.16;79.83
61357;BME280;47227;46.752;23.576;2023-06-14T05:29:07;96175.45;;;14.17;81.01
61357;BME280;47227;46.752;23.576;2023-06-14T05:31:35;96181.23;;;14.33;81.52
61357;BME280;47227;46.752;23.576;2023-06-14T05:34:04;96186.27;;;14.37;80.90
61357;BME280;47227;46.752;23.576;2023-06-14T05:36:32;96188.32;;;14.38;80.77
61357;BME280;47227;46.752;23.576;2023-06-14T05:39:05;96189.94;;;14.41;80.71
61357;BME280;47227;46.752;23.576;2023-06-14T05:41:34;96192.11;;;14.47;80.60
61357;BME280;47227;46.752;23.576;2023-06-14T05:44:02;96197.27;;;14.57;80.88
61357;BME280;47227;46.752;23.576;2023-06-14T05:46:30;96201.14;;;14.69;79.73
61357;BME280;47227;46.752;23.576;2023-06-14T05:48:58;96199.40;;;14.81;80.28
61357;BME280;47227;46.752;23.576;2023-06-14T05:51:26;96199.52;;;14.94;79.97
61357;BME280;47227;46.752;23.576;2023-06-14T05:54:22;96198.84;;;15.07;79.45
61357;BME280;47227;46.752;23.576;2023-06-14T05:56:50;96203.80;;;15.26;79.83
61357;BME280;47227;46.752;23.576;2023-06-14T05:59:18;96201.70;;;15.42;78.97
61357;BME280;47227;46.752;23.576;2023-06-14T06:01:46;96200.95;;;15.58;78.67
61357;BME280;47227;46.752;23.576;2023-06-14T06:04:14;96199.09;;;15.70;77.78
61357;BME280;47227;46.752;23.576;2023-06-14T06:06:44;96200.10;;;15.75;75.02
61357;BME280;47227;46.752;23.576;2023-06-14T06:09:13;96206.43;;;15.85;75.28
61357;BME280;47227;46.752;23.576;2023-06-14T06:11:42;96204.91;;;15.89;73.54
61357;BME280;47227;46.752;23.576;2023-06-14T06:14:21;96206.91;;;15.95;74.15
61357;BME280;47227;46.752;23.576;2023-06-14T06:47:12;96211.41;;;15.99;74.62
61357;BME280;47227;46.752;23.576;2023-06-14T06:57:13;96207.19;;;16.04;73.44
61357;BME280;47227;46.752;23.576;2023-06-14T07:01:22;96209.81;;;16.06;73.08
61357;BME280;47227;46.752;23.576;2023-06-14T07:06:02;96211.06;;;16.27;72.78
61357;BME280;47227;46.752;23.576;2023-06-14T07:26:03;96221.52;;;17.25;69.13
61357;BME280;47227;46.752;23.576;2023-06-14T07:34:11;96217.92;;;17.75;67.31
61357;BME280;47227;46.752;23.576;2023-06-14T07:41:49;96219.50;;;17.62;65.92
61357;BME280;47227;46.752;23.576;2023-06-14T08:13:21;96222.05;;;19.55;59.91
61357;BME280;47227;46.752;23.576;2023-06-14T08:16:00;96220.43;;;19.76;60.17
61357;BME280;47227;46.752;23.576;2023-06-14T08:18:34;96222.27;;;19.97;60.51
61357;BME280;47227;46.752;23.576;2023-06-14T08:21:13;96223.30;;;20.10;59.33
61357;BME280;47227;46.752;23.576;2023-06-14T08:23:47;96220.80;;;20.02;58.59
61357;BME280;47227;46.752;23.576;2023-06-14T08:26:51;96220.39;;;20.01;58.73
61357;BME280;47227;46.752;23.576;2023-06-14T08:30:35;96219.27;;;20.05;59.15
61357;BME280;47227;46.752;23.576;2023-06-14T08:34:00;96214.56;;;20.03;58.77
61357;BME280;47227;46.752;23.576;2023-06-14T08:40:47;96215.30;;;19.30;59.10
61357;BME280;47227;46.752;23.576;2023-06-14T08:43:56;96216.18;;;19.27;58.47
61357;BME280;47227;46.752;23.576;2023-06-14T08:50:42;96214.16;;;18.89;59.33
61357;BME280;47227;46.752;23.576;2023-06-14T08:54:13;96215.72;;;19.04;58.53
61357;BME280;47227;46.752;23.576;2023-06-14T09:08:21;96223.92;;;19.64;56.32
61357;BME280;47227;46.752;23.576;2023-06-14T09:19:58;96223.04;;;20.56;55.65
61357;BME280;47227;46.752;23.576;2023-06-14T09:22:56;96223.73;;;20.63;56.22
61357;BME280;47227;46.752;23.576;2023-06-14T09:26:41;96223.67;;;20.80;57.11
61357;BME280;47227;46.752;23.576;2023-06-14T09:29:57;96221.69;;;20.92;56.52
61357;BME280;47227;46.752;23.576;2023-06-14T09:42:48;96227.60;;;21.65;53.72
61357;BME280;47227;46.752;23.576;2023-06-14T09:50:55;96222.44;;;22.09;52.11
61357;BME280;47227;46.752;23.576;2023-06-14T09:55:41;96225.50;;;22.24;51.31
61357;BME280;47227;46.752;23.576;2023-06-14T09:58:37;96222.64;;;22.55;49.81
61357;BME280;47227;46.752;23.576;2023-06-14T10:01:26;96227.66;;;22.88;51.41
61357;BME280;47227;46.752;23.576;2023-06-14T10:04:04;96220.80;;;23.21;51.14
61357;BME280;47227;46.752;23.576;2023-06-14T10:07:35;96220.27;;;23.44;49.98
61357;BME280;47227;46.752;23.576;2023-06-14T10:11:04;96216.60;;;23.73;48.72
61357;BME280;47227;46.752;23.576;2023-06-14T10:14:58;96213.21;;;24.04;48.42
61357;BME280;47227;46.752;23.576;2023-06-14T10:18:00;96218.88;;;23.92;46.35
61357;BME280;47227;46.752;23.576;2023-06-14T10:20:58;96220.41;;;23.87;47.17
61357;BME280;47227;46.752;23.576;2023-06-14T10:24:01;96214.41;;;24.06;47.13
61357;BME280;47227;46.752;23.576;2023-06-14T10:27:07;96209.60;;;24.46;47.29
61357;BME280;47227;46.752;23.576;2023-06-14T10:30:01;96211.32;;;24.55;45.97
61357;BME280;47227;46.752;23.576;2023-06-14T10:32:32;96211.44;;;24.31;44.76
61357;BME280;47227;46.752;23.576;2023-06-14T10:35:05;96207.04;;;24.07;44.29
61357;BME280;47227;46.752;23.576;2023-06-14T10:37:38;96208.33;;;24.17;44.34
61357;BME280;47227;46.752;23.576;2023-06-14T10:40:08;96203.11;;;24.52;45.35
61357;BME280;47227;46.752;23.576;2023-06-14T10:42:51;96209.30;;;24.95;43.75
61357;BME280;47227;46.752;23.576;2023-06-14T10:45:44;96214.35;;;25.23;42.34
61357;BME280;47227;46.752;23.576;2023-06-14T10:48:33;96215.56;;;25.51;41.55
61357;BME280;47227;46.752;23.576;2023-06-14T10:51:18;96217.86;;;25.64;41.73
61357;BME280;47227;46.752;23.576;2023-06-14T10:53:49;96220.41;;;24.83;41.73
61357;BME280;47227;46.752;23.576;2023-06-14T10:56:31;96222.79;;;23.85;43.13
61357;BME280;47227;46.752;23.576;2023-06-14T10:59:05;96216.21;;;23.78;43.74
61357;BME280;47227;46.752;23.576;2023-06-14T11:01:52;96217.78;;;23.59;44.90
61357;BME280;47227;46.752;23.576;2023-06-14T11:04:50;96219.50;;;22.94;46.18
61357;BME280;47227;46.752;23.576;2023-06-14T11:11:06;96215.34;;;22.16;48.04
61357;BME280;47227;46.752;23.576;2023-06-14T11:14:10;96216.42;;;21.78;49.06
61357;BME280;47227;46.752;23.576;2023-06-14T11:17:26;96215.72;;;21.68;49.32
61357;BME280;47227;46.752;23.576;2023-06-14T11:20:12;96210.80;;;21.74;49.81
61357;BME280;47227;46.752;23.576;2023-06-14T11:31:07;96199.55;;;21.96;49.74
61357;BME280;47227;46.752;23.576;2023-06-14T11:34:08;96198.92;;;22.06;48.94
61357;BME280;47227;46.752;23.576;2023-06-14T11:37:11;96198.52;;;22.01;48.87
61357;BME280;47227;46.752;23.576;2023-06-14T11:39:45;96194.48;;;22.22;49.02
61357;BME280;47227;46.752;23.576;2023-06-14T11:42:29;96194.80;;;22.33;48.36
61357;BME280;47227;46.752;23.576;2023-06-14T11:45:08;96202.38;;;22.59;48.80
61357;BME280;47227;46.752;23.576;2023-06-14T11:47:58;96201.22;;;22.82;47.86
61357;BME280;47227;46.752;23.576;2023-06-14T11:50:38;96197.30;;;22.88;46.93
61357;BME280;47227;46.752;23.576;2023-06-14T11:53:18;96189.13;;;23.11;47.67
61357;BME280;47227;46.752;23.576;2023-06-14T11:55:57;96187.70;;;23.39;47.63
61357;BME280;47227;46.752;23.576;2023-06-14T11:59:13;96189.04;;;23.55;45.74
61357;BME280;47227;46.752;23.576;2023-06-14T12:01:43;96186.84;;;23.03;45.41
61357;BME280;47227;46.752;23.576;2023-06-14T12:04:49;96187.25;;;22.80;45.80
61357;BME280;47227;46.752;23.576;2023-06-14T12:08:02;96190.19;;;22.63;46.58
61357;BME280;47227;46.752;23.576;2023-06-14T12:14:32;96191.48;;;22.81;46.52
61357;BME280;47227;46.752;23.576;2023-06-14T12:24:37;96180.17;;;24.18;43.41
61357;BME280;47227;46.752;23.576;2023-06-14T12:27:14;96182.90;;;24.56;42.52
61357;BME280;47227;46.752;23.576;2023-06-14T12:29:44;96187.52;;;24.70;42.09
61357;BME280;47227;46.752;23.576;2023-06-14T12:32:12;96184.46;;;24.73;41.52
61357;BME280;47227;46.752;23.576;2023-06-14T12:34:48;96178.61;;;24.69;41.71
61357;BME280;47227;46.752;23.576;2023-06-14T12:37:17;96177.65;;;24.39;42.03
61357;BME280;47227;46.752;23.576;2023-06-14T12:39:55;96178.73;;;24.24;42.70
61357;BME280;47227;46.752;23.576;2023-06-14T12:42:24;96175.27;;;24.18;42.52
61357;BME280;47227;46.752;23.576;2023-06-14T12:44:55;96174.59;;;24.26;42.59
61357;BME280;47227;46.752;23.576;2023-06-14T12:47:28;96166.85;;;24.31;42.80
61357;BME280;47227;46.752;23.576;2023-06-14T12:50:02;96166.61;;;24.35;42.57
61357;BME280;47227;46.752;23.576;2023-06-14T12:53:00;96167.75;;;24.48;42.71
61357;BME280;47227;46.752;23.576;2023-06-14T13:00:22;96158.98;;;24.77;41.41
61357;BME280;47227;46.752;23.576;2023-06-14T13:11:34;96159.02;;;25.71;39.70
61357;BME280;47227;46.752;23.576;2023-06-14T13:14:26;96161.77;;;25.62;39.30
61357;BME280;47227;46.752;23.576;2023-06-14T13:18:04;96159.20;;;25.28;39.75
61357;BME280;47227;46.752;23.576;2023-06-14T13:29:58;96160.83;;;24.27;42.01
61357;BME280;47227;46.752;23.576;2023-06-14T13:33:48;96158.95;;;24.02;42.82
61357;BME280;47227;46.752;23.576;2023-06-14T13:43:55;96163.08;;;23.39;43.20
61357;BME280;47227;46.752;23.576;2023-06-14T13:47:22;96166.21;;;23.05;43.87
61357;BME280;47227;46.752;23.576;2023-06-14T13:50:15;96169.87;;;23.11;44.07
61357;BME280;47227;46.752;23.576;2023-06-14T13:52:44;96172.48;;;23.14;43.79
61357;BME280;47227;46.752;23.576;2023-06-14T13:55:24;96176.69;;;22.93;44.40
61357;BME280;47227;46.752;23.576;2023-06-14T13:58:00;96173.71;;;23.36;43.59
61357;BME280;47227;46.752;23.576;2023-06-14T14:00:42;96168.34;;;23.94;42.55
61357;BME280;47227;46.752;23.576;2023-06-14T14:03:32;96165.30;;;24.36;41.85
61357;BME280;47227;46.752;23.576;2023-06-14T14:06:12;96165.64;;;24.63;41.21
61357;BME280;47227;46.752;23.576;2023-06-14T14:08:53;96168.89;;;25.09;40.88
61357;BME280;47227;46.752;23.576;2023-06-14T14:11:56;96167.62;;;25.40;39.46
61357;BME280;47227;46.752;23.576;2023-06-14T14:14:30;96169.16;;;25.43;38.70
61357;BME280;47227;46.752;23.576;2023-06-14T14:17:00;96168.52;;;25.33;38.75
61357;BME280;47227;46.752;23.576;2023-06-14T14:19:28;96165.59;;;25.14;39.16
61357;BME280;47227;46.752;23.576;2023-06-14T14:21:56;96168.20;;;24.89;39.50
61357;BME280;47227;46.752;23.576;2023-06-14T14:24:25;96165.02;;;24.65;39.72
61357;BME280;47227;46.752;23.576;2023-06-14T14:26:53;96161.65;;;24.36;40.19
61357;BME280;47227;46.752;23.576;2023-06-14T14:29:21;96162.68;;;24.09;41.26
61357;BME280;47227;46.752;23.576;2023-06-14T14:31:57;96165.20;;;23.99;41.10
61357;BME280;47227;46.752;23.576;2023-06-14T14:34:27;96167.26;;;23.76;41.52
61357;BME280;47227;46.752;23.576;2023-06-14T14:36:56;96167.10;;;23.63;42.13
61357;BME280;47227;46.752;23.576;2023-06-14T14:39:25;96166.11;;;23.38;43.22
61357;BME280;47227;46.752;23.576;2023-06-14T14:42:25;96167.66;;;23.32;42.86
61357;BME280;47227;46.752;23.576;2023-06-14T14:45:00;96164.50;;;23.06;43.63
61357;BME280;47227;46.752;23.576;2023-06-14T14:47:28;96163.05;;;23.11;44.24
61357;BME280;47227;46.752;23.576;2023-06-14T14:49:56;96160.91;;;23.34;44.14
61357;BME280;47227;46.752;23.576;2023-06-14T14:52:25;96156.33;;;23.43;43.72
61357;BME280;47227;46.752;23.576;2023-06-14T14:54:58;96154.85;;;23.48;43.52
61357;BME280;47227;46.752;23.576;2023-06-14T14:57:29;96154.29;;;23.73;43.45
61357;BME280;47227;46.752;23.576;2023-06-14T15:00:02;96152.83;;;24.02;43.11
61357;BME280;47227;46.752;23.576;2023-06-14T15:02:33;96156.60;;;24.23;42.71
61357;BME280;47227;46.752;23.576;2023-06-14T15:05:03;96156.30;;;24.26;42.09
61357;BME280;47227;46.752;23.576;2023-06-14T15:07:32;96154.13;;;24.13;42.28
61357;BME280;47227;46.752;23.576;2023-06-14T15:10:02;96154.16;;;24.37;41.93
61357;BME280;47227;46.752;23.576;2023-06-14T15:12:30;96155.80;;;24.43;41.22
61357;BME280;47227;46.752;23.576;2023-06-14T15:14:58;96158.05;;;24.26;41.64
61357;BME280;47227;46.752;23.576;2023-06-14T15:17:26;96156.55;;;24.27;41.48
61357;BME280;47227;46.752;23.576;2023-06-14T15:19:54;96156.53;;;23.84;42.10
61357;BME280;47227;46.752;23.576;2023-06-14T15:22:23;96161.15;;;23.51;42.92
61357;BME280;47227;46.752;23.576;2023-06-14T15:24:50;96161.38;;;23.45;43.47
61357;BME280;47227;46.752;23.576;2023-06-14T15:27:18;96161.13;;;23.20;44.05
61357;BME280;47227;46.752;23.576;2023-06-14T15:29:47;96164.11;;;22.76;45.25
61357;BME280;47227;46.752;23.576;2023-06-14T15:32:18;96165.40;;;22.55;46.37
61357;BME280;47227;46.752;23.576;2023-06-14T15:34:48;96166.60;;;22.37;46.84
61357;BME280;47227;46.752;23.576;2023-06-14T15:37:16;96165.18;;;22.16;47.25
61357;BME280;47227;46.752;23.576;2023-06-14T15:39:44;96166.35;;;21.93;47.92
61357;BME280;47227;46.752;23.576;2023-06-14T15:42:12;96169.85;;;21.82;48.24
61357;BME280;47227;46.752;23.576;2023-06-14T15:44:40;96169.35;;;21.64;48.68
61357;BME280;47227;46.752;23.576;2023-06-14T15:47:10;96172.46;;;21.57;49.31
61357;BME280;47227;46.752;23.576;2023-06-14T15:49:38;96168.82;;;21.56;49.40
61357;BME280;47227;46.752;23.576;2023-06-14T15:52:07;96170.05;;;21.47;49.70
61357;BME280;47227;46.752;23.576;2023-06-14T15:54:35;96171.45;;;21.31;50.11
61357;BME280;47227;46.752;23.576;2023-06-14T15:57:03;96179.21;;;20.93;51.15
61357;BME280;47227;46.752;23.576;2023-06-14T15:59:31;96177.58;;;20.55;52.42
61357;BME280;47227;46.752;23.576;2023-06-14T16:01:59;96180.42;;;20.51;52.36
61357;BME280;47227;46.752;23.576;2023-06-14T16:04:27;96180.48;;;20.47;52.45
61357;BME280;47227;46.752;23.576;2023-06-14T16:06:56;96179.24;;;20.24;53.22
61357;BME280;47227;46.752;23.576;2023-06-14T16:09:25;96184.26;;;20.11;53.43
61357;BME280;47227;46.752;23.576;2023-06-14T16:11:53;96188.95;;;19.89;54.18
61357;BME280;47227;46.752;23.576;2023-06-14T16:14:22;96190.61;;;19.74;55.10
61357;BME280;47227;46.752;23.576;2023-06-14T16:16:50;96189.81;;;19.72;54.82
61357;BME280;47227;46.752;23.576;2023-06-14T16:19:20;96186.86;;;19.50;55.62
61357;BME280;47227;46.752;23.576;2023-06-14T16:21:48;96185.27;;;19.46;55.86
61357;BME280;47227;46.752;23.576;2023-06-14T16:24:17;96189.51;;;19.42;55.69
61357;BME280;47227;46.752;23.576;2023-06-14T16:26:46;96191.36;;;19.51;55.51
61357;BME280;47227;46.752;23.576;2023-06-14T16:29:17;96189.77;;;19.41;55.77
61357;BME280;47227;46.752;23.576;2023-06-14T16:31:45;96191.50;;;19.54;55.33
61357;BME280;47227;46.752;23.576;2023-06-14T16:34:13;96192.80;;;19.57;55.37
61357;BME280;47227;46.752;23.576;2023-06-14T16:36:44;96195.67;;;19.57;55.39
61357;BME280;47227;46.752;23.576;2023-06-14T16:39:13;96200.08;;;19.54;55.32
61357;BME280;47227;46.752;23.576;2023-06-14T16:41:41;96193.75;;;19.39;55.28
61357;BME280;47227;46.752;23.576;2023-06-14T16:44:09;96192.18;;;19.46;55.27
61357;BME280;47227;46.752;23.576;2023-06-14T16:46:37;96194.32;;;19.60;55.01
61357;BME280;47227;46.752;23.576;2023-06-14T16:49:06;96199.91;;;19.58;54.68
61357;BME280;47227;46.752;23.576;2023-06-14T16:51:35;96199.92;;;19.59;54.54
61357;BME280;47227;46.752;23.576;2023-06-14T16:54:03;96203.19;;;19.62;54.74
61357;BME280;47227;46.752;23.576;2023-06-14T16:56:31;96207.30;;;19.69;54.96
61357;BME280;47227;46.752;23.576;2023-06-14T16:58:59;96211.61;;;19.73;55.02
61357;BME280;47227;46.752;23.576;2023-06-14T17:01:27;96217.80;;;19.77;54.80
61357;BME280;47227;46.752;23.576;2023-06-14T17:03:57;96219.98;;;19.81;54.69
61357;BME280;47227;46.752;23.576;2023-06-14T17:06:25;96223.48;;;19.87;54.74
61357;BME280;47227;46.752;23.576;2023-06-14T17:08:53;96227.58;;;20.09;54.77
61357;BME280;47227;46.752;23.576;2023-06-14T17:11:22;96229.31;;;20.25;54.64
61357;BME280;47227;46.752;23.576;2023-06-14T17:14:11;96226.77;;;20.36;54.38
61357;BME280;47227;46.752;23.576;2023-06-14T17:16:40;96227.63;;;20.39;54.23
61357;BME280;47227;46.752;23.576;2023-06-14T17:19:09;96228.23;;;20.46;54.02
61357;BME280;47227;46.752;23.576;2023-06-14T17:21:37;96233.34;;;20.48;53.94
61357;BME280;47227;46.752;23.576;2023-06-14T17:24:05;96242.45;;;20.42;53.96
61357;BME280;47227;46.752;23.576;2023-06-14T17:26:51;96242.02;;;20.29;53.82
61357;BME280;47227;46.752;23.576;2023-06-14T17:29:19;96238.05;;;20.11;53.85
61357;BME280;47227;46.752;23.576;2023-06-14T17:31:49;96239.58;;;19.97;54.10
61357;BME280;47227;46.752;23.576;2023-06-14T17:34:17;96241.77;;;19.82;54.35
61357;BME280;47227;46.752;23.576;2023-06-14T17:36:46;96241.64;;;19.71;54.75
61357;BME280;47227;46.752;23.576;2023-06-14T17:39:20;96241.19;;;19.62;55.10
61357;BME280;47227;46.752;23.576;2023-06-14T17:41:48;96244.58;;;19.59;55.29
61357;BME280;47227;46.752;23.576;2023-06-14T17:54:18;96243.63;;;19.09;56.53
61357;BME280;47227;46.752;23.576;2023-06-14T17:56:47;96248.00;;;18.99;56.59
61357;BME280;47227;46.752;23.576;2023-06-14T17:59:16;96254.02;;;18.88;57.09
61357;BME280;47227;46.752;23.576;2023-06-14T18:01:44;96255.33;;;18.73;58.32
61357;BME280;47227;46.752;23.576;2023-06-14T18:04:12;96255.95;;;18.59;58.49
61357;BME280;47227;46.752;23.576;2023-06-14T18:06:41;96259.05;;;18.50;58.75
61357;BME280;47227;46.752;23.576;2023-06-14T18:09:09;96259.51;;;18.46;58.76
61357;BME280;47227;46.752;23.576;2023-06-14T18:11:37;96261.56;;;18.36;58.98
61357;BME280;47227;46.752;23.576;2023-06-14T18:14:05;96262.66;;;18.21;59.73
61357;BME280;47227;46.752;23.576;2023-06-14T18:16:33;96263.31;;;18.07;60.37
61357;BME280;47227;46.752;23.576;2023-06-14T18:19:01;96266.73;;;17.92;61.09
61357;BME280;47227;46.752;23.576;2023-06-14T18:21:29;96266.77;;;17.80;60.28
61357;BME280;47227;46.752;23.576;2023-06-14T18:23:57;96261.96;;;17.69;60.23
61357;BME280;47227;46.752;23.576;2023-06-14T18:26:26;96268.77;;;17.58;60.37
61357;BME280;47227;46.752;23.576;2023-06-14T18:28:55;96272.35;;;17.48;60.72
61357;BME280;47227;46.752;23.576;2023-06-14T18:31:23;96272.16;;;17.38;60.91
61357;BME280;47227;46.752;23.576;2023-06-14T18:33:52;96272.21;;;17.27;60.96
61357;BME280;47227;46.752;23.576;2023-06-14T18:36:21;96273.51;;;17.16;61.16
61357;BME280;47227;46.752;23.576;2023-06-14T18:38:49;96273.90;;;17.04;61.53
61357;BME280;47227;46.752;23.576;2023-06-14T18:41:17;96275.23;;;16.92;62.06
61357;BME280;47227;46.752;23.576;2023-06-14T18:43:46;96278.54;;;16.80;62.64
61357;BME280;47227;46.752;23.576;2023-06-14T18:46:14;96277.58;;;16.66;62.81
61357;BME280;47227;46.752;23.576;2023-06-14T18:48:42;96283.66;;;16.54;63.22